Time;durP1;ratioP1;P1;durP2;ratioP2;P2;SDS_P1;SDS_P2;PMS_P1;PMS_P2;Temp;Humidity;BMP_temperature;BMP_pressure;BME280_temperature;BME280_humidity;BME280_pressure;Samples;Min_cycle;Max_cycle;Signal;HPM_P1;HPM_P2
2023/06/16 00:00:13;;;;;;;7.70;7.10;;;15.30;79.50;;;;;;6196274;28;20061;-80
2023/06/16 00:03:16;;;;;;;8.68;6.80;;;15.30;79.70;;;;;;6197539;28;20043;-81
2023/06/16 00:06:19;;;;;;;7.65;6.95;;;15.20;79.80;;;;;;6198451;28;20053;-79
2023/06/16 00:09:25;;;;;;;7.35;6.65;;;15.00;80.10;;;;;;6199203;28;21038;-80
2023/06/16 00:12:27;;;;;;;9.30;8.18;;;15.10;81.10;;;;;;6202098;28;20045;-81
2023/06/16 00:15:29;;;;;;;7.22;6.57;;;15.20;80.80;;;;;;6197708;28;20061;-80
2023/06/16 00:18:32;;;;;;;10.35;6.55;;;15.10;80.70;;;;;;6197215;28;20061;-81
2023/06/16 00:21:37;;;;;;;6.97;6.05;;;15.10;80.90;;;;;;6206917;28;20050;-81
2023/06/16 00:24:39;;;;;;;8.63;7.70;;;15.00;81.20;;;;;;6208648;28;20046;-81
2023/06/16 00:27:41;;;;;;;8.77;7.03;;;14.90;81.80;;;;;;6208208;28;20054;-81
2023/06/16 00:30:44;;;;;;;7.50;6.85;;;14.90;81.80;;;;;;6209991;28;20048;-80
2023/06/16 00:33:47;;;;;;;7.90;7.15;;;14.80;82.20;;;;;;6209684;28;20060;-81
2023/06/16 00:36:49;;;;;;;8.95;8.05;;;14.70;82.70;;;;;;6208310;28;20409;-82
2023/06/16 00:39:51;;;;;;;8.32;7.53;;;14.60;82.90;;;;;;6202142;28;20046;-80
2023/06/16 00:42:53;;;;;;;10.27;7.93;;;14.50;83.30;;;;;;6201989;28;20042;-81
2023/06/16 00:45:55;;;;;;;7.45;6.82;;;14.50;83.80;;;;;;6200240;28;20046;-80
2023/06/16 00:48:59;;;;;;;9.65;8.75;;;14.40;84.00;;;;;;6200992;28;20062;-80
2023/06/16 00:52:02;;;;;;;10.20;7.53;;;14.30;84.20;;;;;;6202749;28;20046;-82
2023/06/16 00:55:08;;;;;;;7.78;6.95;;;14.30;85.00;;;;;;6203977;28;20038;-82
2023/06/16 00:58:10;;;;;;;7.63;6.93;;;14.30;85.30;;;;;;6203157;28;20536;-82
2023/06/16 01:01:14;;;;;;;8.10;7.30;;;14.30;85.40;;;;;;6201438;28;20490;-82
2023/06/16 01:04:18;;;;;;;7.63;6.88;;;14.20;85.70;;;;;;6201464;28;20053;-82
2023/06/16 01:07:28;;;;;;;8.57;7.80;;;14.30;86.10;;;;;;6201542;28;20070;-81
2023/06/16 01:10:37;;;;;;;9.30;8.50;;;14.40;85.80;;;;;;6199055;28;20136;-82
2023/06/16 01:13:49;;;;;;;9.18;8.27;;;14.30;85.50;;;;;;6203581;28;20038;-82
2023/06/16 01:16:53;;;;;;;10.05;9.07;;;14.20;86.00;;;;;;6203749;28;20616;-82
2023/06/16 01:20:09;;;;;;;7.90;7.10;;;14.10;86.80;;;;;;6200583;28;20060;-82
2023/06/16 01:23:25;;;;;;;8.60;7.72;;;14.10;86.90;;;;;;6201309;28;20422;-82
2023/06/16 01:26:31;;;;;;;8.25;7.43;;;14.00;86.80;;;;;;6205035;28;20116;-82
2023/06/16 01:29:37;;;;;;;9.07;8.27;;;13.80;87.40;;;;;;6200785;28;20056;-82
2023/06/16 01:32:40;;;;;;;9.20;8.23;;;13.80;87.90;;;;;;6201979;28;20054;-81
2023/06/16 01:35:42;;;;;;;8.93;8.02;;;13.70;88.10;;;;;;6203930;28;20050;-81
2023/06/16 01:38:45;;;;;;;7.68;6.95;;;13.60;88.50;;;;;;6202029;28;20404;-80
2023/06/16 01:41:49;;;;;;;8.80;8.00;;;13.50;89.10;;;;;;6201583;28;20069;-80
2023/06/16 01:44:52;;;;;;;9.25;8.32;;;13.60;89.90;;;;;;6202734;28;20053;-80
2023/06/16 01:47:54;;;;;;;7.75;7.13;;;13.70;90.10;;;;;;6205191;28;20370;-80
2023/06/16 01:50:56;;;;;;;12.13;8.25;;;13.80;89.90;;;;;;6204145;28;20038;-81
2023/06/16 01:53:58;;;;;;;9.02;8.13;;;13.70;89.50;;;;;;6205072;28;20065;-81
2023/06/16 01:57:03;;;;;;;9.85;8.50;;;13.50;89.80;;;;;;6203705;28;20073;-80
2023/06/16 02:00:12;;;;;;;9.13;8.25;;;13.40;90.30;;;;;;6205251;28;20057;-80
2023/06/16 02:03:18;;;;;;;8.70;7.43;;;13.30;90.40;;;;;;6205261;28;20050;-81
2023/06/16 02:06:27;;;;;;;9.68;8.60;;;13.30;90.60;;;;;;6204006;28;20516;-79
2023/06/16 02:09:30;;;;;;;8.15;7.30;;;13.30;90.90;;;;;;6204612;28;20417;-80
2023/06/16 02:12:34;;;;;;;9.55;7.90;;;13.30;91.10;;;;;;6205414;28;20057;-80
2023/06/16 02:15:36;;;;;;;6.65;6.10;;;13.50;91.10;;;;;;6205452;28;20525;-80
2023/06/16 02:18:39;;;;;;;9.25;8.40;;;13.60;90.90;;;;;;6204063;28;20430;-82
2023/06/16 02:21:41;;;;;;;10.02;8.32;;;13.60;91.00;;;;;;6205182;28;20039;-81
2023/06/16 02:24:44;;;;;;;8.73;7.93;;;13.60;90.90;;;;;;6203938;28;20050;-80
2023/06/16 02:27:47;;;;;;;8.60;7.63;;;13.70;90.90;;;;;;6202475;28;20050;-81
2023/06/16 02:30:49;;;;;;;8.05;7.03;;;13.60;91.10;;;;;;6202486;28;20050;-80
2023/06/16 02:33:51;;;;;;;9.60;7.53;;;13.50;91.00;;;;;;6202703;28;20046;-81
2023/06/16 02:36:53;;;;;;;8.52;7.72;;;13.30;91.10;;;;;;6203177;28;20046;-81
2023/06/16 02:39:55;;;;;;;9.70;8.85;;;13.20;91.60;;;;;;6205438;28;20057;-80
2023/06/16 02:42:58;;;;;;;8.50;7.68;;;13.20;91.60;;;;;;6203197;28;20053;-82
2023/06/16 02:46:01;;;;;;;8.45;7.45;;;13.10;91.60;;;;;;6201883;28;20058;-80
2023/06/16 02:49:03;;;;;;;8.43;7.50;;;12.80;91.90;;;;;;6201839;28;20050;-80
2023/06/16 02:52:06;;;;;;;9.15;8.23;;;12.80;92.30;;;;;;6202625;28;20057;-82
2023/06/16 02:55:08;;;;;;;8.43;7.65;;;12.90;92.50;;;;;;6201938;28;20112;-81
2023/06/16 02:58:11;;;;;;;8.77;7.95;;;12.90;92.60;;;;;;6202134;28;20069;-81
2023/06/16 03:01:14;;;;;;;9.90;8.43;;;12.80;92.60;;;;;;6202214;28;20047;-81
2023/06/16 03:04:17;;;;;;;8.18;7.25;;;12.70;93.00;;;;;;6202497;28;20054;-81
2023/06/16 03:07:19;;;;;;;8.48;7.70;;;12.90;93.30;;;;;;6201800;28;20057;-81
2023/06/16 03:10:20;;;;;;;8.35;7.55;;;13.10;93.20;;;;;;6200929;28;20054;-81
2023/06/16 03:13:24;;;;;;;8.70;7.68;;;13.20;93.00;;;;;;6201414;28;20042;-81
2023/06/16 03:16:27;;;;;;;7.20;6.60;;;13.20;92.80;;;;;;6200997;28;20042;-82
2023/06/16 03:19:29;;;;;;;9.85;7.88;;;13.30;92.90;;;;;;6203479;28;20050;-81
2023/06/16 03:22:31;;;;;;;9.68;7.47;;;13.30;92.90;;;;;;6203282;28;20511;-82
2023/06/16 03:25:35;;;;;;;7.68;6.97;;;13.40;92.90;;;;;;6204299;28;20050;-80
2023/06/16 03:28:38;;;;;;;9.65;7.35;;;13.50;92.60;;;;;;6203554;28;20065;-80
2023/06/16 03:31:40;;;;;;;8.23;7.43;;;13.30;92.50;;;;;;6203180;28;20054;-79
2023/06/16 03:34:44;;;;;;;7.68;7.03;;;13.30;93.00;;;;;;6203243;28;20046;-79
2023/06/16 03:37:45;;;;;;;11.32;6.78;;;13.30;93.10;;;;;;6203758;28;20046;-79
2023/06/16 03:40:47;;;;;;;11.65;7.20;;;13.40;93.20;;;;;;6204295;28;20054;-81
2023/06/16 03:43:50;;;;;;;21.40;11.52;;;13.50;93.00;;;;;;6203598;28;20054;-81
2023/06/16 03:46:52;;;;;;;12.43;9.45;;;13.50;93.00;;;;;;6204484;28;20073;-81
2023/06/16 03:49:54;;;;;;;10.93;7.18;;;13.50;93.10;;;;;;6200080;28;20408;-80
2023/06/16 03:52:56;;;;;;;8.00;6.60;;;13.50;92.90;;;;;;6198222;28;20054;-81
2023/06/16 03:55:57;;;;;;;7.88;7.13;;;13.40;93.10;;;;;;6197631;28;20054;-81
2023/06/16 03:59:00;;;;;;;9.98;8.50;;;13.40;93.00;;;;;;6198064;28;20424;-80
2023/06/16 04:02:07;;;;;;;7.75;7.00;;;13.30;93.20;;;;;;6198698;28;20057;-81
2023/06/16 04:05:09;;;;;;;8.85;8.05;;;13.20;93.30;;;;;;6198540;28;20057;-81
2023/06/16 04:08:10;;;;;;;8.02;7.32;;;13.30;93.50;;;;;;6198895;28;20652;-81
2023/06/16 04:11:12;;;;;;;8.07;7.38;;;13.30;93.70;;;;;;6198647;28;20053;-80
2023/06/16 04:14:15;;;;;;;27.67;7.75;;;13.30;93.80;;;;;;6197440;28;20061;-81
2023/06/16 04:17:17;;;;;;;8.65;7.70;;;13.50;94.30;;;;;;6199115;28;20046;-79
2023/06/16 04:20:18;;;;;;;8.52;6.80;;;13.80;94.50;;;;;;6200334;28;20524;-81
2023/06/16 04:23:20;;;;;;;7.72;7.05;;;14.40;94.20;;;;;;6200028;28;20389;-80
2023/06/16 04:26:26;;;;;;;9.73;7.20;;;14.90;93.60;;;;;;6199742;28;20054;-82
2023/06/16 04:29:29;;;;;;;8.93;6.70;;;15.40;92.60;;;;;;6199219;28;20047;-80
2023/06/16 04:32:32;;;;;;;6.68;6.07;;;15.60;92.30;;;;;;6199728;28;20061;-81
2023/06/16 04:35:34;;;;;;;8.70;7.45;;;15.80;92.20;;;;;;6199549;28;20053;-81
2023/06/16 04:38:35;;;;;;;12.95;5.97;;;16.30;91.80;;;;;;6200324;28;20057;-80
2023/06/16 04:41:37;;;;;;;5.97;5.43;;;16.80;91.00;;;;;;6201534;28;20066;-81
2023/06/16 04:44:41;;;;;;;9.52;8.02;;;17.20;90.00;;;;;;6201449;28;20050;-80
2023/06/16 04:47:44;;;;;;;7.93;6.10;;;17.50;88.30;;;;;;6199943;28;20050;-82
2023/06/16 04:50:46;;;;;;;6.63;6.10;;;18.10;86.90;;;;;;6199315;28;20056;-81
2023/06/16 04:53:48;;;;;;;5.40;4.93;;;18.50;84.50;;;;;;6200127;28;20158;-82
2023/06/16 04:56:50;;;;;;;5.95;5.43;;;19.00;81.90;;;;;;6202188;28;20058;-81
2023/06/16 04:59:53;;;;;;;6.78;5.53;;;19.40;80.20;;;;;;6200590;28;20050;-82
2023/06/16 05:02:55;;;;;;;6.20;5.70;;;20.20;77.80;;;;;;6200272;28;20057;-82
2023/06/16 05:05:56;;;;;;;11.55;7.50;;;20.80;74.90;;;;;;6200768;28;20109;-81
2023/06/16 05:08:58;;;;;;;8.93;5.03;;;21.40;72.20;;;;;;6193586;28;20054;-81
2023/06/16 05:12:00;;;;;;;4.90;4.50;;;22.00;69.90;;;;;;6202278;28;20054;-80
2023/06/16 05:15:03;;;;;;;5.82;5.32;;;22.60;68.00;;;;;;6190964;28;20046;-78
2023/06/16 05:18:05;;;;;;;7.70;4.97;;;23.00;66.20;;;;;;6198535;28;20053;-81
2023/06/16 05:21:07;;;;;;;5.18;4.50;;;23.50;65.00;;;;;;6201709;28;20500;-83
2023/06/16 05:24:08;;;;;;;5.88;5.25;;;24.00;63.70;;;;;;6198959;28;20512;-81
2023/06/16 05:27:10;;;;;;;7.60;4.88;;;24.50;62.20;;;;;;6198506;28;20046;-80
2023/06/16 05:30:13;;;;;;;5.75;5.25;;;24.80;60.70;;;;;;6200842;28;20489;-83
2023/06/16 05:33:15;;;;;;;5.13;4.63;;;25.40;59.30;;;;;;6199506;28;20065;-80
2023/06/16 05:36:17;;;;;;;8.05;5.40;;;25.80;57.80;;;;;;6204297;28;20390;-82
2023/06/16 05:39:19;;;;;;;7.18;5.63;;;26.20;56.70;;;;;;6208283;28;20049;-80
2023/06/16 05:42:20;;;;;;;5.43;4.90;;;26.60;55.70;;;;;;6204446;28;20048;-82
2023/06/16 05:45:23;;;;;;;6.63;5.20;;;27.00;54.30;;;;;;6202601;28;20417;-83
2023/06/16 05:48:25;;;;;;;5.60;5.10;;;27.50;53.20;;;;;;6200517;28;20424;-81
2023/06/16 05:51:27;;;;;;;7.20;5.28;;;27.80;51.90;;;;;;6205771;28;20047;-80
2023/06/16 05:54:28;;;;;;;5.15;4.65;;;28.00;50.90;;;;;;6204614;28;20061;-79
2023/06/16 05:57:31;;;;;;;11.35;5.40;;;28.50;50.00;;;;;;6206229;28;20061;-81
2023/06/16 06:00:34;;;;;;;5.30;4.90;;;28.90;48.90;;;;;;6204175;28;20563;-78
2023/06/16 06:03:36;;;;;;;6.15;5.55;;;29.20;48.20;;;;;;6205127;28;20500;-80
2023/06/16 06:06:38;;;;;;;9.65;5.18;;;29.50;47.50;;;;;;6202821;28;20045;-82
2023/06/16 06:09:40;;;;;;;8.63;5.63;;;29.80;46.60;;;;;;6198702;28;20456;-80
2023/06/16 06:12:42;;;;;;;6.90;5.13;;;30.10;45.70;;;;;;6208733;28;20140;-78
2023/06/16 06:15:45;;;;;;;7.55;6.25;;;30.50;45.10;;;;;;6218101;28;20042;-81
2023/06/16 06:18:47;;;;;;;6.55;4.95;;;30.80;44.00;;;;;;6218858;28;20049;-81
2023/06/16 06:21:49;;;;;;;14.82;6.00;;;31.20;43.60;;;;;;6219452;28;20474;-81
2023/06/16 06:24:50;;;;;;;11.02;6.13;;;31.50;43.10;;;;;;6218309;28;20515;-79
2023/06/16 06:27:52;;;;;;;8.20;6.65;;;31.90;42.60;;;;;;6217230;28;20034;-80
2023/06/16 06:30:55;;;;;;;7.13;5.57;;;31.90;42.00;;;;;;6215332;28;20057;-81
2023/06/16 06:33:57;;;;;;;7.70;6.13;;;32.20;41.60;;;;;;6208899;28;20073;-78
2023/06/16 06:36:59;;;;;;;6.85;5.90;;;32.30;41.20;;;;;;6206173;28;20046;-79
2023/06/16 06:40:00;;;;;;;9.05;6.70;;;32.30;40.90;;;;;;6206623;28;20053;-78
2023/06/16 06:43:02;;;;;;;9.05;5.38;;;32.20;40.70;;;;;;6213581;28;20104;-82
2023/06/16 06:46:05;;;;;;;11.35;5.93;;;32.50;40.60;;;;;;6218441;28;20196;-82
2023/06/16 06:49:07;;;;;;;14.65;6.85;;;32.70;40.40;;;;;;6217904;28;20050;-78
2023/06/16 06:52:09;;;;;;;11.02;7.00;;;32.90;40.00;;;;;;6220500;28;20079;-80
2023/06/16 06:55:11;;;;;;;19.08;6.35;;;32.80;39.90;;;;;;6222387;28;20049;-80
2023/06/16 06:58:12;;;;;;;12.80;6.65;;;33.10;39.60;;;;;;6220992;28;20049;-80
2023/06/16 07:01:15;;;;;;;8.80;6.30;;;33.30;39.10;;;;;;6219357;28;20073;-79
2023/06/16 07:04:17;;;;;;;6.90;5.53;;;33.40;39.00;;;;;;6220341;28;20350;-80
2023/06/16 07:07:19;;;;;;;8.23;6.68;;;33.70;38.60;;;;;;6221554;28;20057;-78
2023/06/16 07:10:20;;;;;;;9.30;5.25;;;33.70;37.90;;;;;;6218592;28;20043;-80
2023/06/16 07:13:22;;;;;;;19.15;5.72;;;33.10;37.40;;;;;;6220513;28;22871;-80
2023/06/16 07:16:25;;;;;;;13.13;6.00;;;33.20;37.90;;;;;;6219377;28;21438;-81
2023/06/16 07:19:27;;;;;;;13.55;5.93;;;33.70;37.50;;;;;;6217301;28;20056;-79
2023/06/16 07:22:29;;;;;;;6.53;5.53;;;33.90;36.90;;;;;;6221883;28;20046;-79
2023/06/16 07:25:32;;;;;;;8.65;5.40;;;34.00;36.70;;;;;;6221903;28;20516;-79
2023/06/16 07:28:34;;;;;;;10.75;5.80;;;34.10;36.80;;;;;;6219114;28;20042;-80
2023/06/16 07:31:37;;;;;;;9.65;6.18;;;34.30;36.90;;;;;;6219054;28;20068;-78
2023/06/16 07:34:41;;;;;;;8.73;6.30;;;34.50;36.50;;;;;;6215030;28;20073;-80
2023/06/16 07:37:43;;;;;;;14.95;5.30;;;33.90;36.40;;;;;;6210798;28;20037;-79
2023/06/16 07:40:45;;;;;;;12.05;6.13;;;32.80;37.40;;;;;;6203673;28;20050;-78
2023/06/16 07:43:48;;;;;;;12.55;6.80;;;31.80;38.50;;;;;;6205510;28;20038;-81
2023/06/16 07:46:51;;;;;;;13.07;5.85;;;30.90;39.50;;;;;;6204161;28;20065;-81
2023/06/16 07:49:53;;;;;;;13.93;5.85;;;30.20;40.30;;;;;;6200504;28;20154;-81
2023/06/16 07:52:54;;;;;;;11.88;6.57;;;29.50;41.30;;;;;;6204093;28;20053;-84
2023/06/16 07:55:56;;;;;;;7.88;6.05;;;28.90;41.90;;;;;;6201150;28;20050;-82
2023/06/16 07:58:58;;;;;;;15.93;6.30;;;28.40;42.30;;;;;;6198840;28;20168;-80
2023/06/16 08:02:02;;;;;;;9.82;5.88;;;28.00;42.80;;;;;;6200882;28;20053;-81
2023/06/16 08:05:05;;;;;;;8.48;5.20;;;27.50;43.50;;;;;;6208771;28;20057;-80
2023/06/16 08:08:06;;;;;;;6.60;5.57;;;27.20;44.00;;;;;;6201176;28;20042;-79
2023/06/16 08:11:08;;;;;;;9.80;6.28;;;27.20;44.20;;;;;;6206912;28;20073;-80
2023/06/16 08:14:10;;;;;;;9.60;5.50;;;27.20;44.40;;;;;;6203011;28;20505;-83
2023/06/16 08:17:13;;;;;;;12.27;5.38;;;27.10;45.20;;;;;;6199581;28;20068;-83
2023/06/16 08:20:14;;;;;;;9.40;4.72;;;27.00;44.80;;;;;;6199322;28;20405;-83
2023/06/16 08:23:16;;;;;;;7.88;5.55;;;27.10;44.70;;;;;;6199086;28;20057;-80
2023/06/16 08:26:18;;;;;;;10.38;4.75;;;27.10;44.90;;;;;;6201993;28;20049;-81
2023/06/16 08:29:20;;;;;;;13.10;5.43;;;27.30;44.60;;;;;;6201655;28;20050;-79
2023/06/16 08:32:23;;;;;;;11.70;4.80;;;27.40;44.70;;;;;;6205397;28;20145;-81
2023/06/16 08:35:24;;;;;;;5.38;4.40;;;27.50;45.20;;;;;;6204778;28;20413;-81
2023/06/16 08:38:27;;;;;;;8.23;4.38;;;27.70;45.20;;;;;;6205010;28;20046;-79
2023/06/16 08:41:30;;;;;;;10.95;5.95;;;27.90;44.90;;;;;;6205080;28;20580;-82
2023/06/16 08:44:33;;;;;;;10.73;5.47;;;28.10;45.00;;;;;;6204159;28;20508;-81
2023/06/16 08:47:38;;;;;;;9.93;5.35;;;28.20;44.60;;;;;;6201144;28;20057;-79
2023/06/16 08:50:40;;;;;;;10.90;5.28;;;28.30;44.20;;;;;;6207520;28;20077;-80
2023/06/16 08:53:46;;;;;;;11.25;4.22;;;28.40;43.40;;;;;;6204322;28;20089;-80
2023/06/16 08:56:51;;;;;;;5.75;4.45;;;28.60;42.60;;;;;;6211933;28;20141;-79
2023/06/16 08:59:56;;;;;;;7.30;4.43;;;28.70;41.80;;;;;;6209712;28;20047;-81
2023/06/16 09:03:00;;;;;;;5.32;3.80;;;28.70;41.50;;;;;;6212470;28;20065;-80
2023/06/16 09:06:02;;;;;;;11.80;5.18;;;28.90;41.10;;;;;;6209249;28;20432;-81
2023/06/16 09:09:04;;;;;;;7.07;4.70;;;29.10;40.80;;;;;;6205828;28;20413;-82
2023/06/16 09:12:08;;;;;;;8.02;3.95;;;29.20;40.20;;;;;;6203322;28;20046;-83
2023/06/16 09:15:11;;;;;;;6.20;5.13;;;29.30;39.80;;;;;;6205988;28;20103;-80
2023/06/16 09:18:15;;;;;;;11.38;4.82;;;29.30;39.60;;;;;;6206980;28;20053;-80
2023/06/16 09:21:20;;;;;;;7.85;4.30;;;29.40;38.90;;;;;;6209547;28;20065;-80
2023/06/16 09:24:26;;;;;;;8.35;4.50;;;29.30;38.70;;;;;;6213209;28;20485;-80
2023/06/16 09:27:43;;;;;;;7.13;3.67;;;29.40;39.10;;;;;;6208429;28;20043;-80
2023/06/16 09:30:46;;;;;;;7.07;4.40;;;29.50;38.30;;;;;;6211429;28;20438;-81
2023/06/16 09:33:49;;;;;;;5.53;3.97;;;29.70;38.10;;;;;;6211336;28;20046;-81
2023/06/16 09:36:52;;;;;;;9.88;4.53;;;29.70;37.20;;;;;;6209309;28;20042;-81
2023/06/16 09:39:54;;;;;;;9.13;3.63;;;29.80;36.40;;;;;;6210127;28;20497;-80
2023/06/16 09:42:58;;;;;;;5.70;3.67;;;30.00;36.00;;;;;;6211541;28;20050;-81
2023/06/16 09:46:00;;;;;;;7.45;4.00;;;30.10;35.80;;;;;;6211458;28;20328;-79
2023/06/16 09:49:03;;;;;;;7.43;4.18;;;30.20;35.50;;;;;;6209612;28;20049;-80
2023/06/16 09:52:05;;;;;;;7.30;5.10;;;30.40;35.40;;;;;;6208678;28;20061;-81
2023/06/16 09:55:08;;;;;;;9.57;4.60;;;30.60;35.30;;;;;;6212525;28;20068;-82
2023/06/16 09:58:09;;;;;;;4.50;3.85;;;30.60;35.20;;;;;;6204478;28;20057;-82
2023/06/16 10:01:13;;;;;;;7.22;4.70;;;30.70;35.70;;;;;;6212269;28;20049;-82
2023/06/16 10:04:17;;;;;;;9.57;4.95;;;30.70;35.90;;;;;;6212595;28;20052;-81
2023/06/16 10:07:19;;;;;;;6.57;4.18;;;30.70;36.10;;;;;;6210713;28;20122;-79
2023/06/16 10:10:23;;;;;;;6.38;4.65;;;30.80;36.30;;;;;;6212821;28;20069;-82
2023/06/16 10:13:28;;;;;;;4.35;3.95;;;30.90;36.30;;;;;;6208731;28;20050;-80
2023/06/16 10:16:31;;;;;;;4.95;3.50;;;31.10;36.00;;;;;;6204290;28;20132;-79
2023/06/16 10:19:37;;;;;;;5.40;3.83;;;31.20;35.20;;;;;;6208128;28;20050;-82
2023/06/16 10:22:39;;;;;;;5.05;3.70;;;31.30;34.90;;;;;;6210704;28;20048;-81
2023/06/16 10:25:41;;;;;;;4.43;3.80;;;31.40;34.50;;;;;;6210539;28;20106;-81
2023/06/16 10:28:43;;;;;;;10.98;4.60;;;31.30;34.30;;;;;;6216784;28;20048;-81
2023/06/16 10:31:45;;;;;;;5.03;3.95;;;31.40;34.70;;;;;;6208630;28;20039;-81
2023/06/16 10:34:51;;;;;;;5.72;3.80;;;31.60;34.20;;;;;;6204679;28;20421;-81
2023/06/16 10:37:54;;;;;;;7.43;4.15;;;31.60;33.60;;;;;;6208626;28;20100;-81
2023/06/16 10:40:58;;;;;;;4.82;3.85;;;31.80;33.80;;;;;;6208949;28;20895;-81
2023/06/16 10:44:24;;;;;;;5.47;4.05;;;31.90;34.10;;;;;;6207740;28;20068;-81
2023/06/16 10:47:28;;;;;;;5.20;4.07;;;32.20;33.70;;;;;;6210698;28;20042;-81
2023/06/16 10:50:32;;;;;;;4.75;4.00;;;32.40;33.60;;;;;;6210612;28;20516;-81
2023/06/16 10:53:38;;;;;;;7.53;4.28;;;32.50;33.30;;;;;;6212117;28;20053;-82
2023/06/16 10:57:06;;;;;;;10.65;4.82;;;32.70;33.50;;;;;;6209910;28;20050;-81
2023/06/16 11:00:11;;;;;;;5.78;4.55;;;33.00;33.60;;;;;;6211732;28;20472;-80
2023/06/16 11:03:13;;;;;;;7.40;4.22;;;33.10;33.60;;;;;;6207688;28;20575;-79
2023/06/16 11:06:17;;;;;;;9.13;4.72;;;33.10;33.10;;;;;;6206495;28;20073;-80
2023/06/16 11:09:19;;;;;;;4.72;4.30;;;32.90;33.40;;;;;;6207258;28;20098;-81
2023/06/16 11:12:21;;;;;;;7.00;4.15;;;33.10;33.40;;;;;;6207828;28;20196;-80
2023/06/16 11:15:24;;;;;;;10.80;3.80;;;33.30;33.00;;;;;;6209221;28;20050;-81
2023/06/16 11:18:26;;;;;;;7.80;4.80;;;33.40;33.00;;;;;;6206812;28;20054;-81
2023/06/16 11:21:30;;;;;;;4.63;4.22;;;33.50;33.20;;;;;;6204565;28;20161;-81
2023/06/16 11:24:34;;;;;;;9.73;4.38;;;33.70;33.00;;;;;;6205790;28;20058;-81
2023/06/16 11:27:38;;;;;;;12.10;3.90;;;33.90;32.80;;;;;;6204235;28;20042;-81
2023/06/16 11:30:40;;;;;;;9.38;4.45;;;34.10;32.80;;;;;;6205275;28;20053;-80
2023/06/16 11:33:42;;;;;;;6.68;4.03;;;33.90;32.40;;;;;;6209159;28;20069;-79
2023/06/16 11:36:48;;;;;;;6.53;4.05;;;33.60;32.60;;;;;;6206536;28;20057;-80
2023/06/16 11:39:49;;;;;;;9.55;4.43;;;33.50;32.40;;;;;;6203256;28;20042;-80
2023/06/16 11:42:55;;;;;;;4.55;3.50;;;33.50;32.60;;;;;;6202495;28;20046;-81
2023/06/16 11:45:57;;;;;;;4.50;4.07;;;33.40;32.60;;;;;;6205657;28;20056;-84
2023/06/16 11:49:02;;;;;;;8.20;5.60;;;33.70;32.60;;;;;;6204452;28;20062;-82
2023/06/16 11:52:07;;;;;;;28.20;14.98;;;34.00;32.40;;;;;;6203873;28;20076;-83
2023/06/16 11:55:09;;;;;;;15.20;10.45;;;34.10;32.40;;;;;;6207990;28;20057;-82
2023/06/16 11:58:14;;;;;;;4.93;4.50;;;34.30;32.40;;;;;;6206555;28;20046;-81
2023/06/16 12:01:17;;;;;;;5.55;5.05;;;34.60;32.00;;;;;;6203846;28;20050;-82
2023/06/16 12:04:21;;;;;;;6.25;4.05;;;34.70;32.10;;;;;;6207605;28;20046;-81
2023/06/16 12:07:24;;;;;;;4.78;3.88;;;34.70;31.90;;;;;;6207518;28;20034;-83
2023/06/16 12:10:26;;;;;;;7.85;4.78;;;34.80;31.90;;;;;;6204384;28;20612;-80
2023/06/16 12:13:29;;;;;;;4.53;4.13;;;34.70;31.80;;;;;;6204090;28;20077;-83
2023/06/16 12:16:31;;;;;;;12.02;4.95;;;34.30;32.00;;;;;;6205720;28;20129;-81
2023/06/16 12:19:35;;;;;;;5.47;4.97;;;33.90;32.30;;;;;;6205588;28;20046;-83
2023/06/16 12:22:38;;;;;;;4.25;3.85;;;34.00;32.70;;;;;;6204522;28;20054;-80
2023/06/16 12:25:41;;;;;;;7.00;3.78;;;34.10;32.60;;;;;;6207553;28;20058;-81
2023/06/16 12:28:46;;;;;;;8.85;4.40;;;34.20;32.50;;;;;;6204701;28;20057;-82
2023/06/16 12:31:52;;;;;;;11.88;4.32;;;34.40;32.10;;;;;;6206211;28;20057;-81
2023/06/16 12:34:53;;;;;;;7.22;3.53;;;34.70;31.60;;;;;;6204354;28;20051;-82
2023/06/16 12:37:59;;;;;;;6.70;5.00;;;34.90;31.60;;;;;;6205070;28;20039;-80
2023/06/16 12:41:01;;;;;;;5.75;4.80;;;34.90;31.50;;;;;;6203774;28;20128;-80
2023/06/16 12:44:03;;;;;;;11.48;5.93;;;35.10;31.40;;;;;;6205326;28;20472;-82
2023/06/16 12:47:05;;;;;;;8.07;4.97;;;35.50;31.30;;;;;;6201561;28;20042;-83
2023/06/16 12:50:07;;;;;;;10.38;4.35;;;35.80;31.00;;;;;;6202963;28;20053;-83
2023/06/16 12:53:10;;;;;;;8.60;5.28;;;35.70;30.70;;;;;;6203857;28;20073;-83
2023/06/16 12:56:14;;;;;;;9.07;5.55;;;35.30;31.20;;;;;;6201105;28;20046;-81
2023/06/16 12:59:16;;;;;;;7.72;4.95;;;35.00;31.30;;;;;;6203300;28;20444;-80
2023/06/16 13:02:18;;;;;;;8.35;4.53;;;34.60;31.50;;;;;;6201477;28;21189;-79
2023/06/16 13:05:20;;;;;;;6.70;4.65;;;34.40;31.70;;;;;;6202935;28;20058;-84
2023/06/16 13:08:23;;;;;;;9.15;5.00;;;34.50;31.70;;;;;;6198915;28;20048;-82
2023/06/16 13:11:26;;;;;;;7.70;4.13;;;34.80;31.60;;;;;;6202265;28;20042;-79
2023/06/16 13:14:29;;;;;;;6.60;4.53;;;34.90;31.50;;;;;;6202047;28;20049;-80
2023/06/16 13:17:31;;;;;;;6.75;5.10;;;35.10;31.50;;;;;;6203199;28;20054;-83
2023/06/16 13:20:41;;;;;;;6.75;4.55;;;35.30;31.30;;;;;;6198552;28;20081;-83
2023/06/16 13:23:52;;;;;;;4.85;3.90;;;35.50;31.20;;;;;;6202113;28;20114;-82
2023/06/16 13:26:53;;;;;;;8.15;4.15;;;35.60;31.10;;;;;;6201059;28;20454;-80
2023/06/16 13:29:56;;;;;;;6.88;4.03;;;35.80;30.90;;;;;;6202156;28;20042;-82
2023/06/16 13:32:58;;;;;;;7.72;4.05;;;36.00;30.70;;;;;;6204767;28;20497;-84
2023/06/16 13:36:00;;;;;;;5.05;3.92;;;36.10;30.20;;;;;;6197860;28;20062;-85
2023/06/16 13:39:04;;;;;;;11.45;4.40;;;35.90;30.70;;;;;;6201580;28;20104;-82
2023/06/16 13:42:06;;;;;;;7.05;5.03;;;35.30;30.00;;;;;;6204262;28;20390;-82
2023/06/16 13:45:08;;;;;;;9.98;3.78;;;34.70;30.30;;;;;;6199162;28;20514;-82
2023/06/16 13:48:11;;;;;;;5.78;4.13;;;34.50;30.60;;;;;;6203493;28;20049;-80
2023/06/16 13:51:13;;;;;;;7.85;4.70;;;34.70;30.60;;;;;;6205344;28;20200;-79
2023/06/16 13:54:16;;;;;;;6.45;4.45;;;34.50;30.80;;;;;;6204978;28;20054;-80
2023/06/16 13:57:17;;;;;;;7.00;4.07;;;34.20;30.80;;;;;;6205006;28;20079;-80
2023/06/16 14:00:19;;;;;;;4.28;3.58;;;34.10;31.20;;;;;;6210375;28;20050;-79
2023/06/16 14:03:24;;;;;;;5.80;4.80;;;34.20;31.40;;;;;;6205731;28;20058;-82
2023/06/16 14:06:27;;;;;;;6.97;4.50;;;34.30;31.30;;;;;;6206025;28;20046;-80
2023/06/16 14:09:30;;;;;;;5.05;3.95;;;34.40;31.30;;;;;;6204461;28;20050;-80
2023/06/16 14:12:32;;;;;;;12.70;5.13;;;34.60;31.10;;;;;;6204714;28;20057;-82
2023/06/16 14:15:35;;;;;;;6.13;4.13;;;34.90;30.90;;;;;;6206037;28;20054;-80
2023/06/16 14:18:37;;;;;;;7.63;4.90;;;34.90;30.80;;;;;;6199757;28;20038;-81
2023/06/16 14:21:38;;;;;;;6.50;3.63;;;35.00;31.00;;;;;;6205772;28;20065;-80
2023/06/16 14:24:41;;;;;;;8.10;5.00;;;35.20;30.90;;;;;;6203772;28;20149;-80
2023/06/16 14:27:43;;;;;;;9.20;4.40;;;35.20;30.60;;;;;;6202920;28;20046;-83
2023/06/16 14:30:45;;;;;;;6.07;4.30;;;34.60;30.00;;;;;;6207631;28;20042;-79
2023/06/16 14:33:49;;;;;;;8.38;4.05;;;34.40;30.70;;;;;;6206760;28;20069;-81
2023/06/16 14:36:51;;;;;;;4.65;3.60;;;34.70;30.70;;;;;;6204118;28;20057;-79
2023/06/16 14:39:54;;;;;;;5.28;4.18;;;35.10;30.50;;;;;;6200107;28;20037;-80
2023/06/16 14:42:56;;;;;;;5.75;4.18;;;35.20;30.30;;;;;;6205197;28;20050;-82
2023/06/16 14:45:57;;;;;;;9.63;5.50;;;35.40;30.30;;;;;;6204112;28;20054;-80
2023/06/16 14:48:59;;;;;;;9.00;4.38;;;35.70;30.20;;;;;;6204121;28;20053;-81
2023/06/16 14:52:01;;;;;;;5.15;4.65;;;35.50;30.00;;;;;;6201565;28;20073;-81
2023/06/16 14:55:06;;;;;;;5.60;4.32;;;35.10;30.30;;;;;;6206560;28;20065;-80
2023/06/16 14:58:08;;;;;;;8.95;5.00;;;34.90;30.20;;;;;;6202214;28;20458;-82
2023/06/16 15:01:09;;;;;;;5.85;4.25;;;34.90;30.20;;;;;;6205689;28;20061;-85
2023/06/16 15:04:11;;;;;;;8.25;5.32;;;34.90;30.40;;;;;;6204096;28;20058;-85
2023/06/16 15:07:13;;;;;;;6.68;4.32;;;35.00;30.20;;;;;;6201749;28;20056;-84
2023/06/16 15:10:18;;;;;;;7.32;4.68;;;35.00;30.20;;;;;;6204974;28;20051;-84
2023/06/16 15:13:20;;;;;;;8.05;4.43;;;34.90;30.50;;;;;;6201943;28;20054;-83
2023/06/16 15:16:22;;;;;;;7.97;4.22;;;34.80;30.60;;;;;;6208229;28;20072;-83
2023/06/16 15:19:24;;;;;;;4.82;4.30;;;34.80;30.70;;;;;;6206059;28;20089;-85
2023/06/16 15:22:26;;;;;;;4.53;4.13;;;35.00;30.70;;;;;;6207747;28;20122;-81
2023/06/16 15:25:29;;;;;;;7.10;4.65;;;35.10;30.50;;;;;;6201871;28;20042;-84
2023/06/16 15:28:32;;;;;;;5.18;4.13;;;35.30;30.30;;;;;;6201098;28;20045;-85
2023/06/16 15:31:34;;;;;;;6.50;4.78;;;35.50;30.40;;;;;;6202703;28;20066;-86
2023/06/16 15:34:36;;;;;;;4.70;4.30;;;35.20;30.30;;;;;;6204416;28;20069;-84
2023/06/16 15:37:38;;;;;;;4.70;4.30;;;35.30;30.40;;;;;;6205229;28;20053;-86
2023/06/16 15:40:41;;;;;;;8.20;4.70;;;35.20;30.30;;;;;;6204100;28;20038;-80
2023/06/16 15:43:42;;;;;;;4.63;4.22;;;35.00;30.20;;;;;;6204554;28;20042;-82
2023/06/16 15:46:45;;;;;;;4.55;4.15;;;34.90;30.10;;;;;;6205429;28;20423;-80
2023/06/16 15:49:46;;;;;;;6.13;3.95;;;34.70;30.00;;;;;;6197502;28;20050;-83